Terminal Aerodrome Forecast
Issued by NWS

Current Version | Previous Version | Graphics & Text | Print | Product List | Glossary On
Versions: 1 2 3 4 5 6 7 8 9 10 11 12 13 14 15 16 17 18 19 20 21 22 23 24 25 26 27 28 29
000
FTUS41 KILN 152200 AAB
TAFLUK
TAF AMD
KLUK 152212Z 1522/1618 10013KT P6SM VCSH OVC045
      TEMPO 1522/1524 -RA
     FM160000 11010KT P6SM VCSH OVC028
     FM161400 14008KT P6SM -SHRA OVC018=

USA.gov is the U.S. government's official web portal to all federal, state and local government web resources and services.